createdAt,value
2018-02-16T00:02:23.107Z,92.25
2018-02-16T00:04:51.468Z,91.77
2018-02-16T00:07:19.860Z,92.40
2018-02-16T00:09:48.230Z,92.31
2018-02-16T00:12:15.874Z,92.42
2018-02-16T00:14:44.390Z,92.39
2018-02-16T00:17:12.522Z,92.51
2018-02-16T00:19:41.030Z,92.60
2018-02-16T00:22:09.414Z,92.71
2018-02-16T00:24:37.035Z,91.37
2018-02-16T00:27:05.560Z,92.30
2018-02-16T00:29:33.918Z,92.65
2018-02-16T00:32:01.495Z,92.73
2018-02-16T00:34:29.923Z,92.28
2018-02-16T00:36:58.389Z,92.48
2018-02-16T00:39:27.002Z,92.31
2018-02-16T00:41:55.348Z,91.63
2018-02-16T00:44:23.754Z,92.17
2018-02-16T00:46:51.334Z,91.97
2018-02-16T00:49:18.920Z,91.93
2018-02-16T00:51:47.274Z,91.06
2018-02-16T00:54:15.637Z,90.80
2018-02-16T00:56:44.117Z,91.54
2018-02-16T00:59:12.640Z,91.74
2018-02-16T01:01:40.998Z,90.44
2018-02-16T01:04:08.620Z,90.48
2018-02-16T01:06:37.138Z,90.83
2018-02-16T01:09:04.761Z,89.64
2018-02-16T01:11:33.181Z,88.88
2018-02-16T01:14:01.526Z,88.84
2018-02-16T01:16:29.103Z,88.99
2018-02-16T01:18:56.677Z,88.55
2018-02-16T01:21:24.287Z,88.61
2018-02-16T01:23:51.938Z,88.77
2018-02-16T01:26:20.270Z,89.23
2018-02-16T01:28:47.846Z,88.90
2018-02-16T01:31:16.399Z,88.85
2018-02-16T01:33:43.980Z,88.87
2018-02-16T01:36:12.392Z,88.64
2018-02-16T01:38:40.005Z,88.45
2018-02-16T01:41:07.589Z,88.62
2018-02-16T01:43:35.207Z,88.66
2018-02-16T01:46:03.621Z,88.78
2018-02-16T01:48:31.243Z,88.50
2018-02-16T01:50:58.818Z,88.68
2018-02-16T01:53:27.311Z,88.45
2018-02-16T01:55:55.703Z,88.85
2018-02-16T01:58:24.076Z,88.85
2018-02-16T02:00:51.654Z,88.89
2018-02-16T02:03:19.967Z,89.05
2018-02-16T02:05:48.338Z,89.42
2018-02-16T02:08:15.916Z,89.58
2018-02-16T02:10:44.328Z,89.69
2018-02-16T02:13:11.907Z,89.87
2018-02-16T02:15:40.226Z,89.64
2018-02-16T02:18:07.806Z,89.72
2018-02-16T02:20:36.336Z,89.99
2018-02-16T02:23:04.719Z,90.49
2018-02-16T02:25:32.294Z,90.20
2018-02-16T02:27:59.914Z,89.79
2018-02-16T02:30:27.499Z,90.04
2018-02-16T02:32:55.083Z,90.31
2018-02-16T02:35:22.697Z,89.75
2018-02-16T02:37:50.277Z,89.69
2018-02-16T02:40:17.855Z,90.01
2018-02-16T02:42:45.454Z,89.95
2018-02-16T02:45:13.778Z,89.77
2018-02-16T02:47:41.356Z,89.79
2018-02-16T02:50:08.935Z,90.07
2018-02-16T02:52:36.551Z,90.35
2018-02-16T02:55:04.133Z,90.18
2018-02-16T02:57:31.715Z,89.99
2018-02-16T02:59:59.295Z,89.97
2018-02-16T03:02:26.959Z,89.81
2018-02-16T03:04:54.542Z,89.38
2018-02-16T03:07:22.119Z,89.38
2018-02-16T03:09:49.698Z,89.22
2018-02-16T03:12:17.274Z,89.78
2018-02-16T03:14:45.778Z,89.77
2018-02-16T03:17:14.174Z,89.88
2018-02-16T03:19:41.754Z,89.76
2018-02-16T03:22:10.235Z,89.70
2018-02-16T03:24:38.791Z,89.46
2018-02-16T03:27:06.372Z,89.59
2018-02-16T03:29:33.950Z,89.28
2018-02-16T03:32:02.290Z,89.64
2018-02-16T03:34:30.665Z,90.06
2018-02-16T03:36:58.288Z,89.86
2018-02-16T03:39:25.862Z,89.62
2018-02-16T03:41:54.338Z,90.08
2018-02-16T03:44:22.609Z,89.69
2018-02-16T03:46:50.191Z,89.88
2018-02-16T03:49:18.545Z,89.84
2018-02-16T03:51:46.906Z,90.16
2018-02-16T03:54:14.518Z,90.33
2018-02-16T03:56:42.951Z,89.88
2018-02-16T03:59:10.528Z,89.81
2018-02-16T04:01:38.139Z,89.27
2018-02-16T04:04:06.654Z,89.31
2018-02-16T04:06:34.298Z,89.34
2018-02-16T04:09:01.911Z,89.32
2018-02-16T04:11:29.486Z,89.09
2018-02-16T04:13:57.060Z,89.55
2018-02-16T04:16:25.339Z,89.61
2018-02-16T04:18:53.743Z,89.64
2018-02-16T04:21:22.018Z,90.03
2018-02-16T04:23:50.419Z,90.09
2018-02-16T04:26:18.707Z,89.86
2018-02-16T04:28:47.150Z,89.88
2018-02-16T04:31:14.730Z,90.06
2018-02-16T04:33:42.346Z,89.97
2018-02-16T04:36:09.925Z,90.51
2018-02-16T04:38:37.506Z,91.29
2018-02-16T04:41:05.803Z,91.64
2018-02-16T04:43:34.174Z,90.95
2018-02-16T04:46:01.804Z,90.94
2018-02-16T04:48:30.158Z,91.37
2018-02-16T04:50:57.800Z,91.25
2018-02-16T04:53:26.327Z,91.23
2018-02-16T04:55:54.760Z,91.71
2018-02-16T04:58:22.338Z,91.97
2018-02-16T05:00:50.749Z,91.02
2018-02-16T05:03:19.241Z,91.38
2018-02-16T05:05:47.610Z,91.59
2018-02-16T05:08:15.971Z,91.27
2018-02-16T05:10:44.339Z,91.44
2018-02-16T05:13:12.042Z,91.67
2018-02-16T05:15:40.699Z,91.53
2018-02-16T05:18:08.309Z,91.08
2018-02-16T05:20:35.886Z,91.19
2018-02-16T05:23:03.499Z,92.45
2018-02-16T05:25:31.078Z,92.47
2018-02-16T05:27:59.502Z,91.94
2018-02-16T05:30:27.878Z,91.73
2018-02-16T05:32:55.496Z,91.53
2018-02-16T05:35:23.153Z,91.67
2018-02-16T05:37:50.768Z,92.73
2018-02-16T05:40:19.195Z,92.07
2018-02-16T05:42:47.610Z,92.38
2018-02-16T05:45:16.194Z,92.39
2018-02-16T05:47:43.819Z,92.19
2018-02-16T05:50:11.458Z,91.89
2018-02-16T05:52:39.040Z,93.23
2018-02-16T05:55:06.620Z,92.79
2018-02-16T05:57:34.204Z,91.87
2018-02-16T06:00:02.489Z,92.19
2018-02-16T06:02:30.070Z,92.79
2018-02-16T06:04:57.730Z,92.71
2018-02-16T06:07:25.307Z,92.98
2018-02-16T06:09:52.994Z,93.34
2018-02-16T06:12:21.515Z,93.78
2018-02-16T06:14:49.939Z,94.19
2018-02-16T06:17:17.523Z,94.66
2018-02-16T06:19:45.098Z,95.37
2018-02-16T06:22:12.723Z,95.14
2018-02-16T06:24:40.308Z,95.28
2018-02-16T06:27:07.915Z,96.01
2018-02-16T06:29:35.489Z,95.68
2018-02-16T06:32:03.074Z,96.19
2018-02-16T06:34:30.687Z,95.71
2018-02-16T06:36:58.274Z,95.53
2018-02-16T06:39:25.959Z,95.40
2018-02-16T06:41:53.541Z,95.39
2018-02-16T06:44:21.158Z,95.43
2018-02-16T06:46:48.736Z,95.93
2018-02-16T06:49:16.355Z,96.07
2018-02-16T06:51:44.177Z,95.87
2018-02-16T06:54:11.801Z,96.23
2018-02-16T06:56:39.383Z,96.03
2018-02-16T06:59:06.967Z,95.99
2018-02-16T07:01:34.590Z,95.93
2018-02-16T07:04:02.170Z,95.35
2018-02-16T07:06:29.791Z,95.24
2018-02-16T07:08:57.533Z,95.30
2018-02-16T07:11:26.043Z,95.54
2018-02-16T07:13:54.234Z,95.56
2018-02-16T07:16:21.851Z,95.73
2018-02-16T07:18:49.428Z,95.34
2018-02-16T07:21:17.028Z,95.10
2018-02-16T07:23:44.652Z,95.08
2018-02-16T07:26:12.279Z,94.83
2018-02-16T07:28:39.919Z,95.36
2018-02-16T07:31:07.499Z,94.83
2018-02-16T07:33:35.619Z,94.47
2018-02-16T07:36:03.245Z,94.17
2018-02-16T07:38:31.416Z,94.02
2018-02-16T07:40:59.154Z,94.07
2018-02-16T07:43:28.969Z,93.86
2018-02-16T07:45:57.724Z,93.49
2018-02-16T07:48:25.982Z,93.50
2018-02-16T07:50:55.297Z,93.58
2018-02-16T07:53:22.974Z,92.96
2018-02-16T07:55:50.556Z,91.83
2018-02-16T07:58:18.208Z,91.71
2018-02-16T08:00:45.859Z,91.66
2018-02-16T08:03:13.535Z,91.35
2018-02-16T08:05:41.155Z,90.45
2018-02-16T08:08:09.579Z,89.76
2018-02-16T08:10:37.930Z,89.17
2018-02-16T08:13:05.630Z,88.55
2018-02-16T08:15:34.661Z,88.24
2018-02-16T08:18:03.508Z,87.58
2018-02-16T08:20:31.870Z,86.21
2018-02-16T08:23:00.025Z,86.02
2018-02-16T08:25:28.079Z,84.94
2018-02-16T08:27:56.271Z,85.66
2018-02-16T08:30:23.942Z,84.30
2018-02-16T08:32:52.329Z,84.25
2018-02-16T08:35:19.912Z,84.22
2018-02-16T08:37:47.488Z,83.21
2018-02-16T08:40:16.032Z,83.95
2018-02-16T08:42:43.616Z,83.60
2018-02-16T08:45:11.238Z,82.05
2018-02-16T08:47:39.715Z,81.11
2018-02-16T08:50:07.298Z,81.96
2018-02-16T08:52:34.883Z,80.68
2018-02-16T08:55:02.520Z,78.22
2018-02-16T08:57:30.911Z,79.09
2018-02-16T08:59:59.365Z,79.87
2018-02-16T09:02:27.722Z,78.41
2018-02-16T09:04:55.352Z,76.85
2018-02-16T09:07:22.932Z,77.54
2018-02-16T09:09:50.510Z,76.15
2018-02-16T09:12:18.157Z,76.24
2018-02-16T09:14:45.775Z,76.31
2018-02-16T09:17:13.394Z,74.90
2018-02-16T09:19:41.890Z,74.97
2018-02-16T09:22:09.510Z,74.36
2018-02-16T09:24:37.100Z,72.86
2018-02-16T09:27:05.586Z,72.04
2018-02-16T09:29:33.233Z,71.66
2018-02-16T09:32:00.816Z,71.23
2018-02-16T09:34:29.398Z,71.88
2018-02-16T09:36:57.663Z,71.82
2018-02-16T09:39:26.608Z,70.94
2018-02-16T09:41:54.191Z,70.61
2018-02-16T09:44:21.782Z,70.23
2018-02-16T09:46:49.369Z,69.64
2018-02-16T09:49:16.959Z,69.46
2018-02-16T09:51:44.536Z,67.79
2018-02-16T09:54:12.111Z,66.02
2018-02-16T09:56:39.683Z,65.66
2018-02-16T09:59:07.256Z,66.10
2018-02-16T10:01:34.835Z,65.75
2018-02-16T10:04:02.412Z,65.54
2018-02-16T10:06:30.022Z,65.35
2018-02-16T10:08:57.600Z,66.30
2018-02-16T10:11:25.174Z,64.50
2018-02-16T10:13:53.372Z,63.17
2018-02-16T10:16:21.030Z,63.91
2018-02-16T10:18:48.594Z,62.86
2018-02-16T10:21:16.210Z,64.37
2018-02-16T10:23:43.866Z,63.06
2018-02-16T10:26:11.474Z,62.05
2018-02-16T10:28:39.138Z,62.81
2018-02-16T10:31:06.710Z,63.04
2018-02-16T10:33:34.326Z,61.85
2018-02-16T10:36:01.972Z,61.45
2018-02-16T10:38:30.491Z,61.02
2018-02-16T10:40:58.071Z,60.50
2018-02-16T10:43:25.692Z,61.17
2018-02-16T10:45:53.266Z,60.99
2018-02-16T10:48:20.846Z,61.21
2018-02-16T10:50:48.436Z,60.95
2018-02-16T10:53:16.007Z,61.28
2018-02-16T10:55:43.609Z,61.00
2018-02-16T10:58:11.202Z,60.51
2018-02-16T11:00:44.502Z,61.14
2018-02-16T11:03:17.786Z,60.93
2018-02-16T11:05:53.846Z,60.91
2018-02-16T11:08:27.243Z,61.13
2018-02-16T11:10:54.878Z,61.69
2018-02-16T11:13:22.454Z,60.03
2018-02-16T11:15:50.030Z,60.94
2018-02-16T11:18:17.664Z,60.50
2018-02-16T11:20:45.306Z,61.27
2018-02-16T11:23:12.882Z,61.13
2018-02-16T11:25:40.466Z,60.95
2018-02-16T11:28:08.937Z,61.03
2018-02-16T11:30:37.401Z,61.15
2018-02-16T11:33:04.981Z,61.13
2018-02-16T11:35:32.557Z,61.00
2018-02-16T11:38:00.144Z,60.61
2018-02-16T11:40:27.716Z,60.39
2018-02-16T11:42:55.296Z,61.07
2018-02-16T11:45:23.664Z,60.40
2018-02-16T11:47:51.238Z,61.92
2018-02-16T11:50:18.812Z,62.76
2018-02-16T11:52:46.493Z,62.63
2018-02-16T11:55:14.135Z,64.22
2018-02-16T11:57:41.708Z,64.73
2018-02-16T12:00:09.314Z,65.01
2018-02-16T12:02:36.890Z,65.26
2018-02-16T12:05:04.488Z,66.01
2018-02-16T12:07:32.062Z,65.76
2018-02-16T12:09:59.640Z,66.00
2018-02-16T12:12:27.218Z,65.88
2018-02-16T12:14:54.800Z,65.61
2018-02-16T12:17:22.381Z,65.47
2018-02-16T12:19:49.961Z,65.45
2018-02-16T12:22:17.598Z,64.60
2018-02-16T12:24:46.119Z,64.78
2018-02-16T12:27:13.691Z,63.94
2018-02-16T12:29:41.266Z,63.11
2018-02-16T12:32:08.847Z,61.70
2018-02-16T12:34:36.425Z,60.92
2018-02-16T12:37:04.031Z,61.16
2018-02-16T12:39:31.616Z,61.24
2018-02-16T12:41:59.204Z,61.17
2018-02-16T12:44:26.823Z,60.94
2018-02-16T12:46:54.403Z,62.22
2018-02-16T12:49:21.978Z,62.49
2018-02-16T12:51:49.558Z,62.77
2018-02-16T12:54:17.135Z,63.44
2018-02-16T12:56:44.710Z,64.06
2018-02-16T12:59:12.318Z,64.77
2018-02-16T13:01:39.898Z,65.82
2018-02-16T13:04:07.473Z,65.78
2018-02-16T13:06:35.999Z,65.54
2018-02-16T13:09:03.618Z,65.98
2018-02-16T13:11:31.194Z,64.18
2018-02-16T13:13:58.774Z,64.56
2018-02-16T13:16:26.355Z,64.47
2018-02-16T13:18:53.926Z,62.84
2018-02-16T13:21:21.544Z,62.10
2018-02-16T13:23:49.119Z,62.55
2018-02-16T13:26:16.723Z,62.99
2018-02-16T13:28:45.097Z,61.90
2018-02-16T13:31:12.723Z,60.16
2018-02-16T13:33:40.295Z,59.81
2018-02-16T13:36:07.883Z,60.00
2018-02-16T13:38:35.456Z,60.19
2018-02-16T13:41:03.031Z,59.44
2018-02-16T13:43:30.602Z,58.96
2018-02-16T13:45:58.179Z,58.73
2018-02-16T13:48:25.806Z,57.86
2018-02-16T13:50:53.381Z,58.87
2018-02-16T13:53:20.975Z,59.13
2018-02-16T13:55:48.562Z,58.98
2018-02-16T13:58:17.050Z,58.95
2018-02-16T14:00:44.630Z,57.61
2018-02-16T14:03:12.211Z,57.06
2018-02-16T14:05:39.786Z,57.75
2018-02-16T14:08:07.359Z,57.84
2018-02-16T14:10:34.975Z,57.74
2018-02-16T14:13:02.551Z,57.51
2018-02-16T14:15:30.127Z,57.33
2018-02-16T14:17:57.700Z,57.84
2018-02-16T14:20:25.273Z,57.83
2018-02-16T14:22:52.846Z,57.47
2018-02-16T14:25:20.419Z,57.74
2018-02-16T14:27:47.995Z,58.43
2018-02-16T14:30:15.587Z,58.09
2018-02-16T14:32:43.162Z,58.41
2018-02-16T14:35:10.730Z,58.07
2018-02-16T14:37:39.202Z,58.51
2018-02-16T14:40:06.830Z,58.68
2018-02-16T14:42:35.318Z,58.98
2018-02-16T14:45:03.549Z,58.62
2018-02-16T14:47:31.130Z,58.29
2018-02-16T14:49:59.403Z,58.32
2018-02-16T14:52:26.983Z,58.28
2018-02-16T14:54:54.630Z,58.90
2018-02-16T14:57:22.264Z,59.29
2018-02-16T14:59:49.846Z,59.12
2018-02-16T15:02:17.421Z,59.14
2018-02-16T15:04:45.002Z,59.35
2018-02-16T15:07:13.415Z,58.61
2018-02-16T15:09:41.779Z,58.95
2018-02-16T15:12:10.240Z,59.06
2018-02-16T15:14:37.814Z,59.51
2018-02-16T15:17:06.187Z,59.14
2018-02-16T15:19:34.643Z,58.85
2018-02-16T15:22:03.023Z,59.25
2018-02-16T15:24:31.421Z,59.56
2018-02-16T15:26:59.938Z,59.87
2018-02-16T15:29:27.509Z,59.88
2018-02-16T15:31:55.131Z,60.29
2018-02-16T15:34:23.652Z,60.77
2018-02-16T15:36:51.250Z,60.85
2018-02-16T15:39:19.639Z,61.49
2018-02-16T15:41:47.219Z,61.49
2018-02-16T15:44:15.719Z,62.56
2018-02-16T15:46:43.295Z,62.98
2018-02-16T15:49:10.884Z,62.42
2018-02-16T15:51:39.483Z,62.99
2018-02-16T15:54:07.095Z,63.28
2018-02-16T15:56:34.674Z,63.92
2018-02-16T15:59:02.287Z,63.61
2018-02-16T16:01:29.864Z,63.83
2018-02-16T16:03:57.452Z,64.38
2018-02-16T16:06:29.524Z,64.37
2018-02-16T16:11:46.103Z,65.53
2018-02-16T16:14:13.650Z,65.41
2018-02-16T16:16:42.064Z,65.73
2018-02-16T16:19:09.615Z,66.49
2018-02-16T16:21:37.162Z,66.29
2018-02-16T16:24:04.710Z,66.29
2018-02-16T16:26:33.098Z,66.23
2018-02-16T16:29:00.686Z,66.38
2018-02-16T16:31:28.266Z,66.96
2018-02-16T16:33:55.856Z,67.04
2018-02-16T16:36:24.302Z,67.73
2018-02-16T16:38:51.894Z,68.23
2018-02-16T16:41:20.344Z,67.92
2018-02-16T16:43:47.935Z,68.17
2018-02-16T16:46:16.375Z,68.16
2018-02-16T16:48:44.907Z,67.76
2018-02-16T16:51:12.604Z,68.08
2018-02-16T16:53:40.193Z,68.47
2018-02-16T16:56:07.738Z,68.22
2018-02-16T16:58:35.278Z,68.47
2018-02-16T17:01:03.567Z,68.70
2018-02-16T17:03:31.847Z,69.04
2018-02-16T17:06:00.238Z,68.87
2018-02-16T17:08:28.554Z,69.16
2018-02-16T17:10:56.936Z,69.01
2018-02-16T17:13:25.266Z,69.95
2018-02-16T17:15:53.187Z,69.85
2018-02-16T17:18:21.522Z,70.30
2018-02-16T17:20:50.034Z,70.61
2018-02-16T17:23:18.290Z,70.79
2018-02-16T17:25:46.630Z,71.11
2018-02-16T17:28:14.177Z,71.37
2018-02-16T17:30:41.724Z,71.63
2018-02-16T17:33:09.286Z,72.01
2018-02-16T17:35:36.863Z,72.59
2018-02-16T17:38:05.318Z,72.85
2018-02-16T17:40:32.869Z,72.87
2018-02-16T17:43:00.418Z,73.51
2018-02-16T17:45:27.967Z,73.80
2018-02-16T17:50:24.187Z,73.99
2018-02-16T17:52:51.743Z,74.28
2018-02-16T17:55:19.292Z,74.32
2018-02-16T17:57:47.838Z,74.74
2018-02-16T18:00:17.807Z,74.91
2018-02-16T18:02:45.425Z,75.10
2018-02-16T18:05:12.973Z,75.20
2018-02-16T18:07:40.562Z,75.81
2018-02-16T18:10:08.114Z,75.65
2018-02-16T18:12:35.685Z,75.63
2018-02-16T18:15:03.231Z,76.07
2018-02-16T18:17:30.883Z,76.19
2018-02-16T18:19:59.051Z,76.73
2018-02-16T18:22:26.599Z,77.48
2018-02-16T18:24:54.142Z,76.41
2018-02-16T18:27:21.698Z,76.80
2018-02-16T18:29:49.254Z,77.35
2018-02-16T18:32:16.843Z,77.25
2018-02-16T18:34:44.422Z,76.91
2018-02-16T18:37:11.987Z,76.82
2018-02-16T18:39:39.541Z,76.71
2018-02-16T18:42:07.094Z,77.17
2018-02-16T18:44:35.464Z,77.22
2018-02-16T18:47:03.006Z,77.80
2018-02-16T18:49:30.550Z,77.90
2018-02-16T18:51:58.140Z,78.31
2018-02-16T18:54:25.678Z,78.38
2018-02-16T18:56:54.039Z,78.35
2018-02-16T18:59:22.310Z,78.88
2018-02-16T19:01:50.666Z,79.15
2018-02-16T19:04:18.998Z,79.08
2018-02-16T19:06:47.138Z,79.76
2018-02-16T19:09:14.695Z,79.79
2018-02-16T19:11:43.139Z,79.83
2018-02-16T19:14:11.395Z,79.73
2018-02-16T19:16:39.913Z,79.97
2018-02-16T19:19:08.286Z,80.15
2018-02-16T19:21:36.649Z,79.87
2018-02-16T19:24:04.230Z,80.27
2018-02-16T19:26:31.779Z,80.18
2018-02-16T19:28:59.369Z,80.20
2018-02-16T19:31:27.839Z,79.89
2018-02-16T19:33:56.211Z,79.74
2018-02-16T19:36:24.555Z,80.09
2018-02-16T19:38:52.107Z,80.08
2018-02-16T19:41:20.625Z,80.07
2018-02-16T19:43:48.903Z,80.11
2018-02-16T19:46:17.307Z,80.19
2018-02-16T19:48:45.560Z,79.66
2018-02-16T19:51:13.146Z,80.10
2018-02-16T19:53:40.694Z,79.86
2018-02-16T19:56:09.087Z,79.89
2018-02-16T19:58:36.630Z,80.56
2018-02-16T20:01:05.019Z,80.95
2018-02-16T20:03:32.571Z,81.06
2018-02-16T20:06:00.118Z,81.19
2018-02-16T20:08:28.459Z,81.85
2018-02-16T20:10:56.010Z,81.83
2018-02-16T20:13:23.558Z,81.71
2018-02-16T20:15:51.178Z,82.23
2018-02-16T20:18:19.091Z,82.22
2018-02-16T20:20:47.542Z,82.46
2018-02-16T20:23:15.095Z,82.60
2018-02-16T20:25:42.682Z,82.95
2018-02-16T20:28:10.235Z,83.50
2018-02-16T20:30:38.769Z,83.70
2018-02-16T20:33:07.102Z,83.50
2018-02-16T20:35:34.650Z,83.14
2018-02-16T20:38:02.252Z,83.65
2018-02-16T20:40:29.826Z,84.31
2018-02-16T20:42:57.388Z,84.10
2018-02-16T20:45:24.947Z,83.59
2018-02-16T20:47:52.505Z,83.51
2018-02-16T20:50:21.018Z,83.78
2018-02-16T20:52:48.579Z,83.60
2018-02-16T20:55:16.127Z,84.21
2018-02-16T20:57:43.675Z,84.57
2018-02-16T21:00:11.230Z,84.95
2018-02-16T21:02:38.826Z,85.20
2018-02-16T21:05:06.431Z,84.67
2018-02-16T21:07:33.979Z,84.89
2018-02-16T21:10:01.538Z,84.59
2018-02-16T21:12:29.091Z,84.73
2018-02-16T21:14:56.647Z,84.83
2018-02-16T21:17:24.202Z,85.09
2018-02-16T21:19:51.747Z,85.42
2018-02-16T21:22:19.297Z,84.70
2018-02-16T21:24:47.543Z,84.62
2018-02-16T21:27:15.094Z,84.81
2018-02-16T21:29:42.650Z,84.92
2018-02-16T21:32:10.250Z,84.94
2018-02-16T21:34:38.614Z,85.58
2018-02-16T21:37:07.010Z,85.34
2018-02-16T21:39:34.562Z,85.29
2018-02-16T21:42:02.162Z,85.63
2018-02-16T21:44:29.718Z,85.72
2018-02-16T21:46:58.207Z,85.86
2018-02-16T21:49:25.758Z,86.01
2018-02-16T21:51:53.311Z,85.67
2018-02-16T21:54:20.901Z,85.43
2018-02-16T21:56:48.466Z,85.71
2018-02-16T21:59:16.766Z,85.73
2018-02-16T22:01:44.321Z,85.77
2018-02-16T22:04:11.918Z,85.79
2018-02-16T22:06:39.496Z,86.10
2018-02-16T22:09:07.042Z,86.03
2018-02-16T22:11:34.595Z,86.80
2018-02-16T22:14:02.149Z,86.11
2018-02-16T22:16:29.705Z,85.98
2018-02-16T22:18:57.258Z,86.23
2018-02-16T22:21:24.831Z,85.97
2018-02-16T22:23:52.395Z,86.38
2018-02-16T22:26:19.994Z,86.43
2018-02-16T22:28:47.545Z,86.45
2018-02-16T22:31:15.109Z,86.53
2018-02-16T22:33:42.710Z,87.13
2018-02-16T22:36:11.123Z,87.43
2018-02-16T22:38:38.682Z,87.50
2018-02-16T22:41:07.090Z,87.44
2018-02-16T22:43:34.645Z,87.24
2018-02-16T22:46:03.071Z,87.11
2018-02-16T22:48:30.624Z,86.95
2018-02-16T22:50:59.136Z,86.36
2018-02-16T22:53:27.448Z,86.95
2018-02-16T22:55:55.815Z,86.82
2018-02-16T22:58:24.290Z,87.37
2018-02-16T23:00:51.885Z,87.12
2018-02-16T23:03:19.443Z,87.11
2018-02-16T23:05:47.989Z,86.75
2018-02-16T23:08:16.261Z,86.62
2018-02-16T23:10:43.869Z,86.39
2018-02-16T23:13:12.218Z,87.26
2018-02-16T23:15:39.794Z,87.32
2018-02-16T23:18:07.855Z,87.84
2018-02-16T23:20:35.420Z,87.25
2018-02-16T23:23:03.926Z,87.22
2018-02-16T23:25:31.473Z,88.01
2018-02-16T23:27:59.926Z,87.34
2018-02-16T23:30:27.487Z,87.24
2018-02-16T23:32:55.078Z,87.89
2018-02-16T23:35:22.659Z,87.83
2018-02-16T23:37:50.250Z,87.46
2018-02-16T23:40:18.079Z,88.47
2018-02-16T23:42:46.496Z,88.31
2018-02-16T23:45:14.064Z,88.51
2018-02-16T23:47:41.630Z,88.80
2018-02-16T23:50:09.232Z,88.67
2018-02-16T23:52:36.791Z,88.58
2018-02-16T23:55:04.446Z,88.64
2018-02-16T23:57:32.011Z,89.18
2018-02-16T23:59:59.608Z,89.34
